createdAt,value
2019-05-21T07:05:01.481Z,18.20
2019-05-21T07:07:31.632Z,18.30
2019-05-21T07:10:03.631Z,18.30
2019-05-21T07:12:33.832Z,18.40
2019-05-21T07:15:04.382Z,18.50
2019-05-21T07:17:34.375Z,18.60
2019-05-21T07:20:05.571Z,18.60
2019-05-21T07:22:35.670Z,18.70
2019-05-21T07:25:06.296Z,18.70
2019-05-21T07:27:36.491Z,18.70
2019-05-21T07:30:07.304Z,18.80
2019-05-21T07:32:37.477Z,18.90
2019-05-21T07:35:26.823Z,19.00
2019-05-21T07:37:57.030Z,19.10
2019-05-21T07:40:27.154Z,19.20
2019-05-21T07:42:57.185Z,19.20
2019-05-21T07:45:27.319Z,19.30
2019-05-21T07:47:58.704Z,19.40
2019-05-21T07:50:28.807Z,19.50
2019-05-21T07:52:58.897Z,19.60
2019-05-21T07:55:28.976Z,19.70
2019-05-21T07:57:59.026Z,19.80
2019-05-21T08:00:29.112Z,19.90
2019-05-21T08:02:59.228Z,20.00
2019-05-21T08:05:29.377Z,20.20
2019-05-21T08:07:59.588Z,20.30
2019-05-21T08:10:29.670Z,20.30
2019-05-21T08:12:59.851Z,20.40
2019-05-21T08:15:29.969Z,20.40
2019-05-21T08:18:00.020Z,20.40
2019-05-21T08:20:30.209Z,20.50
2019-05-21T08:23:00.373Z,20.60
2019-05-21T08:25:30.333Z,20.70
2019-05-21T08:28:00.412Z,20.70
2019-05-21T08:30:30.585Z,20.80
2019-05-21T08:33:00.613Z,20.80
2019-05-21T08:35:34.460Z,20.90
2019-05-21T08:38:06.780Z,20.90
2019-05-21T08:40:36.706Z,20.90
2019-05-21T08:43:10.092Z,20.90
2019-05-21T08:45:40.247Z,21.00
2019-05-21T08:48:10.782Z,21.00
2019-05-21T08:50:42.040Z,21.00
2019-05-21T08:53:12.572Z,21.10
2019-05-21T08:55:43.055Z,21.10
2019-05-21T08:58:13.189Z,21.20
2019-05-21T09:00:43.291Z,21.30
2019-05-21T09:03:13.323Z,21.50
2019-05-21T09:05:43.511Z,21.60
2019-05-21T09:08:13.902Z,21.70
2019-05-21T09:10:43.982Z,21.90
2019-05-21T09:13:17.847Z,22.00
2019-05-21T09:15:46.924Z,22.10
2019-05-21T09:18:17.052Z,22.20
2019-05-21T09:20:47.333Z,22.30
2019-05-21T09:23:17.606Z,22.30
2019-05-21T09:25:49.687Z,22.30
2019-05-21T09:28:19.941Z,22.40
2019-05-21T09:30:50.148Z,22.40
2019-05-21T09:33:20.475Z,22.40
2019-05-21T09:35:50.714Z,22.40
2019-05-21T09:38:20.703Z,22.30
2019-05-21T09:40:50.831Z,22.20
2019-05-21T09:43:21.110Z,22.10
2019-05-21T09:45:51.226Z,22.10
2019-05-21T09:48:21.160Z,22.00
2019-05-21T09:50:51.286Z,22.00
2019-05-21T09:53:21.351Z,22.00
2019-05-21T09:55:51.425Z,22.00
2019-05-21T09:58:27.583Z,21.90
2019-05-21T10:01:12.771Z,21.80
2019-05-21T10:03:44.297Z,21.70
2019-05-21T10:06:14.672Z,21.60
2019-05-21T10:08:45.674Z,21.40
2019-05-21T10:11:15.782Z,21.30
2019-05-21T10:13:45.987Z,21.20
2019-05-21T10:16:16.023Z,21.20
2019-05-21T10:18:46.562Z,21.20
2019-05-21T10:21:16.677Z,21.10
2019-05-21T10:23:46.903Z,21.20
2019-05-21T10:26:17.087Z,21.20
2019-05-21T10:28:47.113Z,21.40
2019-05-21T10:31:17.323Z,21.60
2019-05-21T10:33:47.417Z,21.70
2019-05-21T10:36:17.623Z,21.80
2019-05-21T10:38:47.863Z,21.90
2019-05-21T10:41:17.942Z,22.00
2019-05-21T10:43:48.017Z,22.00
2019-05-21T10:46:18.223Z,22.10
2019-05-21T10:48:48.314Z,22.20
2019-05-21T10:51:18.542Z,22.20
2019-05-21T10:53:48.718Z,22.20
2019-05-21T10:56:18.750Z,22.20
2019-05-21T10:58:48.905Z,22.20
2019-05-21T11:01:29.813Z,22.20
2019-05-21T11:04:22.034Z,22.20
2019-05-21T11:06:52.422Z,22.10
2019-05-21T11:09:23.261Z,22.10
2019-05-21T11:11:53.371Z,22.20
2019-05-21T11:14:23.593Z,22.30
2019-05-21T11:16:53.847Z,22.60
2019-05-21T11:19:24.065Z,22.80
2019-05-21T11:21:54.645Z,23.00
2019-05-21T11:24:24.702Z,23.10
2019-05-21T11:26:54.824Z,23.10
2019-05-21T11:29:24.766Z,23.10
2019-05-21T11:31:57.456Z,23.10
2019-05-21T11:34:26.751Z,23.00
2019-05-21T11:36:56.898Z,23.00
2019-05-21T11:39:27.072Z,22.90
2019-05-21T11:41:57.448Z,22.90
2019-05-21T11:44:27.449Z,23.10
2019-05-21T11:46:57.527Z,23.20
2019-05-21T11:49:27.741Z,23.30
2019-05-21T11:51:57.785Z,23.50
2019-05-21T11:54:27.734Z,23.70
2019-05-21T11:56:58.008Z,23.70
2019-05-21T11:59:28.257Z,23.60
2019-05-21T12:01:58.479Z,23.50
2019-05-21T12:04:28.500Z,23.40
2019-05-21T12:06:58.455Z,23.30
2019-05-21T12:09:28.574Z,23.10
2019-05-21T12:11:58.561Z,22.90
2019-05-21T12:14:28.716Z,22.80
2019-05-21T12:16:58.795Z,22.70
2019-05-21T12:19:28.883Z,22.50
2019-05-21T12:21:58.858Z,22.40
2019-05-21T12:24:29.083Z,22.30
2019-05-21T12:26:59.329Z,22.10
2019-05-21T12:29:29.659Z,22.00
2019-05-21T12:31:59.913Z,22.00
2019-05-21T12:34:29.935Z,22.10
2019-05-21T12:37:00.206Z,22.20
2019-05-21T12:39:30.450Z,22.20
2019-05-21T12:42:00.583Z,22.30
2019-05-21T12:44:30.740Z,22.20
2019-05-21T12:47:01.203Z,22.20
2019-05-21T12:49:31.126Z,22.20
2019-05-21T12:52:01.222Z,22.20
2019-05-21T12:54:31.202Z,22.20
2019-05-21T12:57:01.310Z,22.20
2019-05-21T12:59:31.677Z,22.30
2019-05-21T13:02:01.941Z,22.30
2019-05-21T13:04:31.980Z,22.40
2019-05-21T13:07:02.107Z,22.60
2019-05-21T13:09:33.231Z,22.80
2019-05-21T13:12:03.543Z,23.00
2019-05-21T13:14:33.808Z,23.30
2019-05-21T13:17:03.993Z,23.50
2019-05-21T13:19:34.093Z,23.70
2019-05-21T13:22:04.242Z,23.90
2019-05-21T13:24:34.888Z,24.20
2019-05-21T13:27:05.481Z,24.40
2019-05-21T13:29:35.534Z,24.60
2019-05-21T13:32:05.744Z,24.70
2019-05-21T13:34:37.021Z,24.80
2019-05-21T13:37:07.164Z,24.90
2019-05-21T13:39:49.625Z,25.00
2019-05-21T13:42:09.101Z,25.00
2019-05-21T13:44:39.224Z,25.20
2019-05-21T13:47:16.745Z,25.30
2019-05-21T13:49:46.801Z,25.20
2019-05-21T13:52:16.984Z,24.80
2019-05-21T13:54:48.449Z,24.50
2019-05-21T13:57:20.424Z,24.50
2019-05-21T13:59:51.743Z,24.60
2019-05-21T14:02:24.478Z,24.70
2019-05-21T14:04:56.307Z,24.80
2019-05-21T14:07:29.967Z,25.00
2019-05-21T14:10:22.520Z,25.30
2019-05-21T14:12:52.695Z,25.50
2019-05-21T14:15:23.744Z,25.70
2019-05-21T14:17:54.070Z,25.90
2019-05-21T14:20:24.827Z,26.00
2019-05-21T14:22:55.452Z,26.20
2019-05-21T14:28:41.413Z,26.30
2019-05-21T14:32:06.375Z,26.20
2019-05-21T14:34:36.795Z,26.00
2019-05-21T14:37:06.957Z,25.70
2019-05-21T14:39:37.062Z,25.40
2019-05-21T14:42:07.231Z,25.00
2019-05-21T14:44:37.422Z,24.80
2019-05-21T14:47:08.200Z,24.60
2019-05-21T14:49:49.381Z,24.40
2019-05-21T14:52:37.207Z,24.30
2019-05-21T14:55:28.282Z,24.40
2019-05-21T14:58:00.129Z,24.50
2019-05-21T15:00:34.235Z,24.60
2019-05-21T15:03:04.683Z,24.80
2019-05-21T15:05:35.804Z,25.00
2019-05-21T15:08:06.010Z,25.20
2019-05-21T15:10:47.743Z,25.30
2019-05-21T15:13:07.970Z,25.30
2019-05-21T15:15:38.138Z,25.30
2019-05-21T15:18:08.423Z,25.20
2019-05-21T15:20:53.415Z,25.10
2019-05-21T15:23:23.888Z,25.00
2019-05-21T15:25:54.157Z,25.00
2019-05-21T15:28:24.692Z,25.00
2019-05-21T15:30:55.077Z,25.10
2019-05-21T15:33:25.563Z,25.10
2019-05-21T15:35:55.998Z,25.20
2019-05-21T15:38:26.166Z,25.30
2019-05-21T15:41:09.439Z,25.30
2019-05-21T15:43:28.578Z,25.30
2019-05-21T15:45:58.749Z,25.20
2019-05-21T15:48:29.091Z,25.00
2019-05-21T15:50:59.439Z,24.80
2019-05-21T15:53:29.826Z,24.60
2019-05-21T15:56:00.076Z,24.50
2019-05-21T15:58:30.179Z,24.40
2019-05-21T16:01:00.392Z,24.30
2019-05-21T16:03:30.693Z,24.30
2019-05-21T16:06:00.811Z,24.30
2019-05-21T16:08:31.147Z,24.50
2019-05-21T16:11:01.232Z,24.60
2019-05-21T16:13:32.420Z,24.70
2019-05-21T16:16:02.918Z,24.80
2019-05-21T16:18:33.111Z,25.20
2019-05-21T16:21:03.185Z,25.60
2019-05-21T16:23:33.286Z,25.60
2019-05-21T16:26:04.325Z,25.50
2019-05-21T16:28:34.471Z,25.60
2019-05-21T16:31:04.743Z,25.50
2019-05-21T16:33:34.973Z,25.40
2019-05-21T16:36:07.477Z,25.20
2019-05-21T16:38:37.663Z,25.00
2019-05-21T16:41:07.868Z,24.80
2019-05-21T16:43:37.981Z,24.50
2019-05-21T16:46:10.231Z,24.30
2019-05-21T16:48:40.407Z,24.20
2019-05-21T16:51:10.620Z,24.00
2019-05-21T16:53:40.730Z,23.90
2019-05-21T16:56:10.993Z,23.70
2019-05-21T16:58:41.165Z,23.70
2019-05-21T17:01:12.188Z,23.60
2019-05-21T17:03:42.347Z,23.40
2019-05-21T17:06:12.660Z,23.20
2019-05-21T17:08:42.917Z,23.20
2019-05-21T17:11:13.230Z,23.00
2019-05-21T17:13:43.281Z,22.90
2019-05-21T17:16:13.446Z,22.70
2019-05-21T17:18:43.598Z,22.60
2019-05-21T17:21:13.694Z,22.40
2019-05-21T17:23:43.887Z,22.30
2019-05-21T17:26:14.053Z,22.20
2019-05-21T17:28:44.323Z,22.10
2019-05-21T17:31:14.641Z,21.90
2019-05-21T17:33:45.176Z,21.80
2019-05-21T17:36:15.440Z,21.70
2019-05-21T17:38:45.767Z,21.50
2019-05-21T17:41:15.911Z,21.40
2019-05-21T17:43:46.177Z,21.30
2019-05-21T17:46:16.426Z,21.20
2019-05-21T17:48:47.292Z,21.00
2019-05-21T17:51:17.477Z,21.00
2019-05-21T17:53:47.805Z,20.90
2019-05-21T17:56:18.315Z,20.80
2019-05-21T17:58:48.542Z,20.70
2019-05-21T18:01:19.551Z,20.60
2019-05-21T18:03:50.909Z,20.50
2019-05-21T18:06:21.362Z,20.40
2019-05-21T18:09:06.539Z,20.30
2019-05-21T18:11:39.428Z,20.20
2019-05-21T18:14:10.393Z,20.20
2019-05-21T18:16:40.975Z,20.10
2019-05-21T18:19:12.670Z,20.00
2019-05-21T18:21:45.913Z,19.90
2019-05-21T18:24:16.694Z,19.80
2019-05-21T18:26:50.350Z,19.80
2019-05-21T18:29:22.322Z,19.70
2019-05-21T18:31:52.471Z,19.60
2019-05-21T18:34:22.838Z,19.50
2019-05-21T18:36:53.006Z,19.40
2019-05-21T18:39:23.919Z,19.40
2019-05-21T18:41:54.445Z,19.30
2019-05-21T18:44:24.811Z,19.30
2019-05-21T18:46:56.248Z,19.20
2019-05-21T18:49:27.786Z,19.10
2019-05-21T18:51:58.258Z,19.10
2019-05-21T18:54:28.488Z,19.10
2019-05-21T18:56:58.787Z,19.00
2019-05-21T18:59:29.257Z,19.00
2019-05-21T19:01:59.703Z,18.90
2019-05-21T19:04:29.953Z,18.80
2019-05-21T19:07:01.339Z,18.80
2019-05-21T19:09:31.572Z,18.70
2019-05-21T19:12:02.047Z,18.70
2019-05-21T19:14:32.521Z,18.60
2019-05-21T19:17:02.848Z,18.50
2019-05-21T19:19:33.054Z,18.50
2019-05-21T19:22:03.438Z,18.40
2019-05-21T19:24:34.165Z,18.30
2019-05-21T19:27:04.675Z,18.30
2019-05-21T19:29:39.555Z,18.20
2019-05-21T19:32:09.815Z,18.20
2019-05-21T19:34:40.398Z,18.10
2019-05-21T19:37:10.495Z,18.10
2019-05-21T19:39:41.317Z,18.10
2019-05-21T19:42:11.818Z,18.00
2019-05-21T19:44:42.076Z,17.90
2019-05-21T19:47:18.872Z,17.80
2019-05-21T19:49:49.846Z,17.80
2019-05-21T19:52:20.088Z,17.80
2019-05-21T19:54:50.397Z,17.70
2019-05-21T19:57:23.598Z,17.70
2019-05-21T19:59:53.735Z,17.70
2019-05-21T20:02:23.816Z,17.60
2019-05-21T20:04:54.481Z,17.60
2019-05-21T20:07:26.625Z,17.50
2019-05-21T20:09:59.867Z,17.40
2019-05-21T20:12:30.687Z,17.40
2019-05-21T20:15:01.678Z,17.30
2019-05-21T20:17:33.776Z,17.20
2019-05-21T20:20:05.652Z,17.20
2019-05-21T20:22:36.366Z,17.10
2019-05-21T20:25:07.457Z,17.00
2019-05-21T20:27:38.015Z,17.00
2019-05-21T20:30:12.923Z,16.90
2019-05-21T20:32:43.007Z,16.80
2019-05-21T20:35:15.443Z,16.70
2019-05-21T20:37:47.283Z,16.60
2019-05-21T20:40:18.783Z,16.60
2019-05-21T20:42:49.637Z,16.50
2019-05-21T20:45:22.532Z,16.50
2019-05-21T20:47:53.023Z,16.40
2019-05-21T20:50:23.413Z,16.40
2019-05-21T20:52:53.948Z,16.30
2019-05-21T20:55:25.202Z,16.30
2019-05-21T20:57:56.139Z,16.20
2019-05-21T21:00:40.678Z,16.20
2019-05-21T21:03:12.287Z,16.10
2019-05-21T21:05:43.223Z,16.10
2019-05-21T21:08:15.202Z,16.00
2019-05-21T21:10:49.023Z,16.00
2019-05-21T21:13:19.358Z,15.90
2019-05-21T21:15:49.629Z,15.80
2019-05-21T21:18:20.334Z,15.70
2019-05-21T21:20:50.760Z,15.70
2019-05-21T21:23:22.925Z,15.60
2019-05-21T21:25:53.336Z,15.60
2019-05-21T21:28:23.704Z,15.50
2019-05-21T21:30:54.585Z,15.50
2019-05-21T21:33:24.741Z,15.40
2019-05-21T21:35:54.947Z,15.40
2019-05-21T21:38:28.253Z,15.40
2019-05-21T21:40:58.553Z,15.30
2019-05-21T21:43:28.670Z,15.30
2019-05-21T21:45:58.805Z,15.20
2019-05-21T21:48:29.876Z,15.20
2019-05-21T21:51:01.112Z,15.10
2019-05-21T21:53:31.450Z,15.10
2019-05-21T21:56:01.532Z,15.00
2019-05-21T21:58:31.638Z,15.00
2019-05-21T22:01:34.592Z,15.00
2019-05-21T22:04:06.914Z,14.90
2019-05-21T22:06:40.719Z,14.90
2019-05-21T22:09:22.930Z,14.80
2019-05-21T22:11:53.963Z,14.80
2019-05-21T22:14:24.849Z,14.70
2019-05-21T22:16:55.898Z,14.70
2019-05-21T22:19:26.987Z,14.60
2019-05-21T22:21:57.283Z,14.50
2019-05-21T22:24:28.573Z,14.40
2019-05-21T22:26:58.852Z,14.40
2019-05-21T22:29:28.947Z,14.40
2019-05-21T22:32:00.089Z,14.30
2019-05-21T22:34:30.066Z,14.30
2019-05-21T22:37:00.126Z,14.30
2019-05-21T22:39:33.322Z,14.20
2019-05-21T22:42:03.759Z,14.20
2019-05-21T22:44:34.819Z,14.10
2019-05-21T22:47:07.037Z,14.10
2019-05-21T22:49:36.980Z,14.00
2019-05-21T22:52:07.158Z,14.00
2019-05-21T22:54:37.309Z,14.00
2019-05-21T22:57:07.473Z,13.90
2019-05-21T22:59:37.691Z,13.90
2019-05-21T23:02:11.706Z,13.80
2019-05-21T23:04:41.821Z,13.80
2019-05-21T23:07:13.667Z,13.80
2019-05-21T23:09:43.869Z,13.70
2019-05-21T23:12:14.583Z,13.70
2019-05-21T23:14:44.516Z,13.70
2019-05-21T23:17:16.725Z,13.70
2019-05-21T23:19:50.254Z,13.60
2019-05-21T23:22:23.710Z,13.60
2019-05-21T23:24:54.343Z,13.60
2019-05-21T23:27:25.547Z,13.60
2019-05-21T23:29:55.819Z,13.60
2019-05-21T23:32:25.861Z,13.50
2019-05-21T23:34:55.921Z,13.50
2019-05-21T23:37:27.642Z,13.50
2019-05-21T23:39:58.446Z,13.40
2019-05-21T23:42:30.066Z,13.40
2019-05-21T23:45:01.268Z,13.30
2019-05-21T23:47:32.781Z,13.40
2019-05-21T23:50:03.218Z,13.30
2019-05-21T23:52:37.101Z,13.30
2019-05-21T23:55:07.231Z,13.30
2019-05-21T23:57:38.833Z,13.30
